Time;durP1;ratioP1;P1;durP2;ratioP2;P2;SDS_P1;SDS_P2;PMS_P1;PMS_P2;Temp;Humidity;BMP_temperature;BMP_pressure;BME280_temperature;BME280_humidity;BME280_pressure;Samples;Min_cycle;Max_cycle;Signal;HPM_P1;HPM_P2
2024/01/17 00:03:18;;;;;;;32.67;6.03;;;;;;;13.22;100.00;101255.03;10521433;28;20068;-81
2024/01/17 00:08:40;;;;;;;34.20;5.55;;;;;;;13.22;100.00;101249.72;10519888;28;20052;-81
2024/01/17 00:14:03;;;;;;;39.47;6.05;;;;;;;13.57;100.00;101234.22;10531947;28;20075;-81
2024/01/17 00:19:30;;;;;;;39.20;5.85;;;;;;;13.49;100.00;101225.28;10520819;28;20044;-81
2024/01/17 00:24:52;;;;;;;33.25;5.72;;;;;;;13.44;100.00;101227.00;10534156;28;20044;-81
2024/01/17 00:30:15;;;;;;;46.97;23.73;;;;;;;13.16;100.00;101239.03;10533811;28;20113;-81
2024/01/17 00:35:39;;;;;;;27.58;5.60;;;;;;;13.27;100.00;101250.66;10519124;28;20047;-81
2024/01/17 00:41:02;;;;;;;42.22;7.03;;;;;;;13.39;100.00;101245.50;10518903;28;20052;-81
2024/01/17 00:46:24;;;;;;;36.78;8.55;;;;;;;13.33;100.00;101248.06;10521477;28;20574;-80
2024/01/17 00:51:48;;;;;;;39.53;7.07;;;;;;;13.33;100.00;101253.38;10533942;28;20048;-81
2024/01/17 00:57:11;;;;;;;46.53;13.68;;;;;;;13.12;100.00;101266.34;10504883;28;20048;-80
2024/01/17 01:02:33;;;;;;;33.55;6.03;;;;;;;13.32;100.00;101267.53;10519130;28;20044;-80
2024/01/17 01:07:57;;;;;;;33.97;5.70;;;;;;;13.23;100.00;101270.06;10519500;28;20093;-79
2024/01/17 01:13:20;;;;;;;33.35;5.35;;;;;;;13.27;100.00;101276.28;10532584;28;20044;-80
2024/01/17 01:18:42;;;;;;;31.92;5.25;;;;;;;13.31;100.00;101276.34;10518356;28;20481;-79
2024/01/17 01:24:06;;;;;;;30.17;7.70;;;;;;;13.25;100.00;101289.53;10517127;28;20051;-80
2024/01/17 01:29:29;;;;;;;33.47;4.43;;;;;;;13.03;100.00;101283.00;10528749;28;20029;-79
2024/01/17 01:34:52;;;;;;;31.20;4.50;;;;;;;12.98;100.00;101291.78;10517859;28;20066;-80
2024/01/17 01:40:16;;;;;;;38.20;5.03;;;;;;;13.30;100.00;101286.94;10520881;28;20044;-80
2024/01/17 01:45:39;;;;;;;37.83;5.22;;;;;;;13.24;100.00;101295.72;10539830;28;20066;-80
2024/01/17 01:51:01;;;;;;;38.10;7.45;;;;;;;13.25;100.00;101292.19;10540455;28;20516;-80
2024/01/17 01:56:29;;;;;;;38.20;7.95;;;;;;;13.17;100.00;101307.09;10526472;28;20562;-81
2024/01/17 02:01:52;;;;;;;28.33;4.57;;;;;;;12.97;100.00;101301.47;10526881;28;20044;-80
2024/01/17 02:07:16;;;;;;;36.47;4.15;;;;;;;13.25;100.00;101304.56;10526280;28;20430;-82
2024/01/17 02:12:44;;;;;;;24.20;2.97;;;;;;;13.54;100.00;101288.13;10539656;28;20469;-81
2024/01/17 02:18:08;;;;;;;29.13;4.90;;;;;;;13.48;100.00;101293.34;10524785;28;20040;-82
2024/01/17 02:23:31;;;;;;;32.45;4.82;;;;;;;13.47;100.00;101298.63;10533450;28;20055;-80
2024/01/17 02:28:55;;;;;;;41.47;7.07;;;;;;;13.39;100.00;101287.06;10538138;28;20059;-81
2024/01/17 02:34:18;;;;;;;36.83;5.18;;;;;;;13.18;100.00;101292.97;10551369;28;20071;-81
2024/01/17 02:39:40;;;;;;;36.72;7.80;;;;;;;13.14;100.00;101299.09;10537140;28;20051;-80
2024/01/17 02:45:05;;;;;;;42.90;5.78;;;;;;;13.09;100.00;101293.69;10537641;28;20059;-80
2024/01/17 02:50:28;;;;;;;41.50;6.88;;;;;;;13.42;100.00;101292.41;10522724;28;20109;-80
2024/01/17 02:55:51;;;;;;;42.20;8.18;;;;;;;13.50;100.00;101288.97;10537504;28;20552;-80
2024/01/17 03:01:15;;;;;;;36.90;6.38;;;;;;;13.39;100.00;101282.63;10531472;28;20044;-80
2024/01/17 03:06:38;;;;;;;27.77;6.63;;;;;;;13.18;100.00;101290.31;10522671;28;20052;-80
2024/01/17 03:12:00;;;;;;;45.22;10.38;;;;;;;13.23;100.00;101290.38;10521877;28;20050;-80
2024/01/17 03:17:25;;;;;;;46.53;13.38;;;;;;;13.12;100.00;101304.41;10536609;28;20044;-80
2024/01/17 03:22:47;;;;;;;31.77;5.97;;;;;;;12.91;100.00;101306.69;10535124;28;20511;-81
2024/01/17 03:28:10;;;;;;;41.13;6.82;;;;;;;12.82;100.00;101318.91;10535590;28;20059;-80
2024/01/17 03:33:37;;;;;;;50.15;7.38;;;;;;;13.07;100.00;101326.34;10518439;28;20157;-79
2024/01/17 03:38:59;;;;;;;32.00;5.50;;;;;;;13.30;100.00;101324.94;10504241;28;20090;-80
2024/01/17 03:44:23;;;;;;;36.80;5.93;;;;;;;13.19;100.00;101328.34;10520197;28;20109;-81
2024/01/17 03:49:47;;;;;;;37.45;11.45;;;;;;;13.02;100.00;101326.28;10521443;28;20039;-81
2024/01/17 03:55:10;;;;;;;32.53;8.25;;;;;;;13.05;100.00;101331.66;10529805;28;20044;-82
2024/01/17 04:00:32;;;;;;;49.45;11.48;;;;;;;12.90;100.00;101322.56;10535154;28;20048;-82
2024/01/17 04:05:56;;;;;;;40.35;6.35;;;;;;;12.70;100.00;101323.16;10519927;28;20040;-81
2024/01/17 04:11:19;;;;;;;37.63;7.80;;;;;;;12.64;100.00;101335.41;10534156;28;20104;-81
2024/01/17 04:16:41;;;;;;;38.15;6.38;;;;;;;12.62;100.00;101342.41;10533222;28;20047;-82
2024/01/17 04:22:06;;;;;;;36.83;7.15;;;;;;;12.54;100.00;101342.28;10548165;28;20187;-80
2024/01/17 04:27:31;;;;;;;42.17;9.18;;;;;;;12.57;100.00;101350.31;10524699;28;20096;-80
2024/01/17 04:32:53;;;;;;;39.28;7.93;;;;;;;12.51;100.00;101355.50;10533016;28;20048;-81
2024/01/17 04:38:17;;;;;;;46.58;6.93;;;;;;;12.41;100.00;101358.84;10518703;28;20048;-79
2024/01/17 04:43:41;;;;;;;45.65;7.95;;;;;;;12.52;100.00;101374.94;10528191;28;20427;-77
2024/01/17 04:49:03;;;;;;;37.88;6.88;;;;;;;12.67;100.00;101373.41;10531694;28;20121;-78
2024/01/17 04:54:30;;;;;;;51.13;9.18;;;;;;;12.65;100.00;101375.16;10516798;28;20130;-78
2024/01/17 04:59:53;;;;;;;36.42;10.65;;;;;;;12.59;100.00;101392.72;10517410;28;20048;-80
2024/01/17 05:05:15;;;;;;;34.33;6.65;;;;;;;12.38;100.00;101388.81;10531055;28;20047;-81
2024/01/17 05:10:42;;;;;;;33.58;7.05;;;;;;;12.21;100.00;101399.94;10517751;28;20044;-80
2024/01/17 05:16:05;;;;;;;30.95;5.50;;;;;;;12.31;100.00;101401.91;10535966;28;20054;-79
2024/01/17 05:21:28;;;;;;;30.08;8.27;;;;;;;12.34;100.00;101409.88;10503931;28;20043;-78
2024/01/17 05:26:52;;;;;;;39.78;13.63;;;;;;;12.09;100.00;101407.63;10517090;28;20085;-78
2024/01/17 05:32:14;;;;;;;42.92;15.50;;;;;;;12.10;100.00;101414.72;10516702;28;20091;-78
2024/01/17 05:37:38;;;;;;;53.25;15.02;;;;;;;12.21;100.00;101427.28;10511131;28;20070;-79
2024/01/17 05:43:02;;;;;;;46.25;13.52;;;;;;;12.36;100.00;101426.72;10516707;28;20086;-79
2024/01/17 05:48:25;;;;;;;97.00;53.72;;;;;;;12.67;100.00;101430.81;10516172;28;20420;-79
2024/01/17 05:53:47;;;;;;;110.05;69.07;;;;;;;13.09;100.00;101442.16;10531266;28;20055;-79
2024/01/17 05:59:13;;;;;;;62.10;25.77;;;;;;;13.24;100.00;101440.63;10531284;28;20040;-79
2024/01/17 06:04:35;;;;;;;49.85;23.75;;;;;;;13.23;100.00;101442.41;10531443;28;20056;-79
2024/01/17 06:09:57;;;;;;;59.25;24.90;;;;;;;13.33;100.00;101446.06;10517125;28;20048;-79
2024/01/17 06:15:21;;;;;;;48.55;21.90;;;;;;;13.48;100.00;101457.81;10523686;28;20036;-79
2024/01/17 06:20:44;;;;;;;62.10;33.70;;;;;;;14.65;100.00;101461.06;10529027;28;20101;-79
2024/01/17 06:26:09;;;;;;;43.63;20.67;;;;;;;16.90;100.00;101457.97;10532071;28;20093;-79
2024/01/17 06:31:32;;;;;;;50.65;16.65;;;;;;;18.77;100.00;101457.50;10515029;28;20773;-78
2024/01/17 06:36:55;;;;;;;47.03;19.95;;;;;;;20.28;100.00;101465.78;10528579;28;20060;-79
2024/01/17 06:42:17;;;;;;;76.75;50.92;;;;;;;21.45;100.00;101466.75;10523889;28;20470;-79
2024/01/17 06:47:41;;;;;;;49.15;24.98;;;;;;;22.72;96.79;101470.41;10537792;28;20105;-79
2024/01/17 06:53:04;;;;;;;49.25;28.95;;;;;;;23.64;87.60;101475.34;10513062;28;20522;-80
2024/01/17 06:58:26;;;;;;;29.30;5.28;;;;;;;24.33;78.27;101477.03;10534521;28;20048;-80
2024/01/17 07:03:50;;;;;;;28.98;6.43;;;;;;;24.40;79.08;101481.31;10533169;28;20052;-80
2024/01/17 07:09:13;;;;;;;29.85;19.25;;;;;;;24.28;77.85;101478.97;10537087;28;20047;-80
2024/01/17 07:14:35;;;;;;;42.17;21.50;;;;;;;24.76;74.46;101486.50;10525562;28;20598;-80
2024/01/17 07:19:59;;;;;;;43.53;23.15;;;;;;;25.89;67.90;101498.03;10518858;28;20090;-80
2024/01/17 07:25:22;;;;;;;31.70;12.70;;;;;;;27.09;57.90;101503.38;10536411;28;20048;-80
2024/01/17 07:30:44;;;;;;;32.40;11.45;;;;;;;27.73;53.95;101499.75;10522360;28;20051;-80
2024/01/17 07:36:09;;;;;;;27.38;10.18;;;;;;;28.52;50.20;101503.41;10536395;28;20044;-81
2024/01/17 07:41:31;;;;;;;49.22;24.20;;;;;;;29.11;47.99;101502.41;10522787;28;20146;-81
2024/01/17 07:46:54;;;;;;;140.95;82.25;;;;;;;29.83;43.90;101505.06;10535995;28;20048;-82
2024/01/17 07:52:18;;;;;;;23.58;8.38;;;;;;;30.67;41.61;101513.19;10522419;28;20146;-81
2024/01/17 07:57:40;;;;;;;29.00;11.63;;;;;;;31.55;39.56;101520.84;10536720;28;20052;-82
2024/01/17 08:03:05;;;;;;;33.63;15.93;;;;;;;32.10;37.70;101537.50;10533923;28;20407;-81
2024/01/17 08:08:29;;;;;;;59.10;26.23;;;;;;;31.84;35.99;101539.09;10507013;28;20048;-80
2024/01/17 08:13:52;;;;;;;29.63;13.60;;;;;;;31.75;35.49;101522.41;10535134;28;20048;-80
2024/01/17 08:19:15;;;;;;;30.02;13.43;;;;;;;31.76;35.25;101514.13;10534669;28;20047;-81
2024/01/17 08:24:39;;;;;;;25.15;11.02;;;;;;;31.87;34.93;101497.94;10520194;28;20055;-82
2024/01/17 08:30:04;;;;;;;21.10;8.23;;;;;;;32.70;33.49;101521.88;10500485;28;20044;-81
2024/01/17 08:35:26;;;;;;;16.02;4.78;;;;;;;33.57;32.38;101530.66;10534242;28;20052;-81
2024/01/17 08:40:51;;;;;;;21.90;5.57;;;;;;;33.58;31.63;101524.19;10518746;28;20044;-82
2024/01/17 08:46:14;;;;;;;15.30;4.57;;;;;;;33.85;31.65;101513.22;10534645;28;20051;-82
2024/01/17 08:51:37;;;;;;;22.55;6.65;;;;;;;34.03;30.50;101505.56;10519040;28;20047;-82
2024/01/17 08:57:01;;;;;;;31.63;13.27;;;;;;;34.39;30.80;101502.09;10515714;28;20106;-82
2024/01/17 09:02:23;;;;;;;21.90;7.47;;;;;;;34.75;29.76;101488.44;10511246;28;20492;-82
2024/01/17 09:07:46;;;;;;;14.45;4.35;;;;;;;35.13;28.84;101481.94;10511945;28;20051;-82
2024/01/17 09:13:13;;;;;;;8.30;1.75;;;;;;;34.57;28.41;101467.84;10547806;28;20055;-82
2024/01/17 09:18:35;;;;;;;11.82;5.18;;;;;;;34.46;28.48;101450.41;10517156;28;20138;-82
2024/01/17 09:23:58;;;;;;;11.38;3.63;;;;;;;34.98;27.49;101447.44;10494001;28;20093;-82
2024/01/17 09:29:22;;;;;;;11.93;4.30;;;;;;;35.46;26.65;101431.81;10489249;28;20048;-82
2024/01/17 09:34:47;;;;;;;10.68;2.83;;;;;;;34.94;27.30;101441.28;10531125;28;20052;-82
2024/01/17 09:40:11;;;;;;;13.93;3.03;;;;;;;34.23;28.42;101435.63;10533283;28;20044;-82
2024/01/17 09:45:35;;;;;;;12.25;3.00;;;;;;;34.44;28.27;101434.06;10531869;28;20071;-82
2024/01/17 09:50:58;;;;;;;12.70;2.90;;;;;;;33.50;29.12;101443.53;10518828;28;20044;-82
2024/01/17 09:56:24;;;;;;;10.63;2.72;;;;;;;33.51;29.28;101448.03;10518921;28;20405;-82
2024/01/17 10:01:48;;;;;;;15.13;2.83;;;;;;;34.25;28.89;101445.50;10537183;28;20052;-82
2024/01/17 10:07:11;;;;;;;8.70;2.35;;;;;;;33.75;28.71;101449.06;10526630;28;20104;-83
2024/01/17 10:12:33;;;;;;;15.52;3.28;;;;;;;33.86;29.34;101449.22;10526359;28;20044;-81
2024/01/17 10:17:57;;;;;;;12.18;2.88;;;;;;;33.80;29.70;101435.94;10537842;28;20056;-82
2024/01/17 10:23:20;;;;;;;13.77;3.08;;;;;;;33.99;29.36;101430.91;10509562;28;20403;-82
2024/01/17 10:28:45;;;;;;;8.95;2.58;;;;;;;33.41;29.71;101438.72;10525299;28;20559;-83
2024/01/17 10:34:10;;;;;;;14.07;5.75;;;;;;;33.26;30.32;101431.53;10520569;28;20127;-82
2024/01/17 10:39:32;;;;;;;14.40;2.65;;;;;;;33.51;30.04;101439.81;10508962;28;20048;-83
2024/01/17 10:44:58;;;;;;;7.90;2.40;;;;;;;32.54;31.12;101443.63;10529452;28;20055;-78
2024/01/17 10:50:23;;;;;;;19.63;8.45;;;;;;;32.37;32.42;101440.13;10533893;28;20059;-82
2024/01/17 10:55:49;;;;;;;17.48;6.82;;;;;;;32.44;32.10;101433.28;10533087;28;20134;-85
2024/01/17 11:01:15;;;;;;;10.67;3.33;;;;;;;31.69;32.89;101428.06;10537014;28;20043;-88
2024/01/17 11:06:39;;;;;;;6.32;1.85;;;;;;;31.03;33.60;101430.22;10532230;28;20300;-78
2024/01/17 11:12:04;;;;;;;9.88;2.70;;;;;;;29.84;35.56;101417.84;10507320;28;20416;-87
2024/01/17 11:17:29;;;;;;;9.38;2.22;;;;;;;29.39;35.90;101404.84;10516633;28;20052;-87
2024/01/17 11:22:53;;;;;;;7.78;1.88;;;;;;;29.01;36.81;101397.75;10527924;28;20049;-82
2024/01/17 11:28:21;;;;;;;8.30;2.00;;;;;;;28.75;37.16;101393.63;10511258;28;20091;-81
2024/01/17 11:33:44;;;;;;;9.98;2.50;;;;;;;28.52;37.79;101395.59;10548866;28;20059;-81
2024/01/17 11:39:10;;;;;;;10.68;1.83;;;;;;;27.73;39.14;101383.03;10531379;28;20050;-84
2024/01/17 11:44:33;;;;;;;8.93;2.08;;;;;;;27.76;39.10;101373.88;10546095;28;20487;-82
2024/01/17 11:50:01;;;;;;;15.23;4.25;;;;;;;27.60;39.39;101372.81;10515048;28;20048;-80
2024/01/17 11:55:33;;;;;;;8.65;2.20;;;;;;;26.63;41.37;101372.44;10536210;28;20040;-82
2024/01/17 12:00:55;;;;;;;12.52;2.78;;;;;;;25.98;43.48;101366.91;10518191;28;20059;-85
2024/01/17 12:06:21;;;;;;;10.75;2.83;;;;;;;25.66;43.30;101371.72;10523726;28;20135;-82
2024/01/17 12:11:46;;;;;;;6.28;1.80;;;;;;;25.21;45.40;101360.69;10511954;28;20044;-81
2024/01/17 12:17:11;;;;;;;9.15;2.00;;;;;;;24.78;47.24;101363.97;10511340;28;20613;-81
2024/01/17 12:22:35;;;;;;;6.43;2.00;;;;;;;24.42;48.47;101368.75;10483483;28;20098;-82
2024/01/17 12:28:02;;;;;;;9.45;2.75;;;;;;;24.03;50.19;101378.03;10531275;28;20251;-86
2024/01/17 12:33:25;;;;;;;10.87;2.10;;;;;;;23.79;53.47;101372.47;10524265;28;20092;-87
2024/01/17 12:38:54;;;;;;;10.90;3.10;;;;;;;23.54;56.23;101382.19;10539517;28;20044;-87
2024/01/17 12:44:19;;;;;;;13.70;2.92;;;;;;;23.16;59.38;101374.22;10530571;28;20048;-85
2024/01/17 12:49:45;;;;;;;10.95;1.98;;;;;;;22.81;62.85;101384.09;10517619;28;20135;-85
2024/01/17 12:55:08;;;;;;;8.93;3.58;;;;;;;22.55;64.65;101381.09;10530598;28;20510;-82
2024/01/17 13:00:32;;;;;;;10.38;3.90;;;;;;;22.48;64.66;101383.06;10519664;28;20052;-85
2024/01/17 13:06:03;;;;;;;15.40;3.08;;;;;;;22.51;64.29;101384.81;10528445;28;20083;-83
2024/01/17 13:11:27;;;;;;;9.50;2.35;;;;;;;22.52;67.68;101379.38;10520211;28;20036;-82
2024/01/17 13:16:51;;;;;;;8.32;2.15;;;;;;;22.58;65.78;101389.97;10489942;28;20075;-85
2024/01/17 13:22:14;;;;;;;8.48;2.80;;;;;;;22.58;63.94;101378.31;10531473;28;20044;-84
2024/01/17 13:27:36;;;;;;;13.60;5.10;;;;;;;22.56;65.35;101383.78;10518788;28;20048;-86
2024/01/17 13:33:01;;;;;;;9.70;2.63;;;;;;;22.55;65.13;101392.75;10517961;28;20044;-83
2024/01/17 13:38:25;;;;;;;8.68;2.50;;;;;;;22.66;62.94;101406.84;10546876;28;20101;-84
2024/01/17 13:43:48;;;;;;;10.20;3.80;;;;;;;22.81;58.27;101416.41;10529927;28;20067;-83
2024/01/17 13:49:12;;;;;;;8.80;1.83;;;;;;;22.48;57.51;101418.03;10509774;28;20042;-81
2024/01/17 13:54:34;;;;;;;11.48;2.55;;;;;;;22.21;59.52;101430.31;10517878;28;20048;-82
2024/01/17 13:59:57;;;;;;;7.90;1.95;;;;;;;21.94;62.88;101433.53;10531329;28;20105;-83
2024/01/17 14:05:21;;;;;;;7.13;2.80;;;;;;;21.44;69.95;101435.41;10518572;28;20047;-80
2024/01/17 14:10:44;;;;;;;9.90;2.78;;;;;;;20.90;78.59;101439.91;10510323;28;20048;-80
2024/01/17 14:16:06;;;;;;;12.45;2.80;;;;;;;20.56;85.91;101436.84;10524911;28;20140;-82
2024/01/17 14:21:31;;;;;;;9.00;2.50;;;;;;;20.18;91.95;101437.34;10535486;28;20173;-81
2024/01/17 14:26:53;;;;;;;9.40;3.83;;;;;;;19.89;98.20;101429.66;10521668;28;20442;-79
2024/01/17 14:32:16;;;;;;;13.98;4.80;;;;;;;19.63;100.00;101420.13;10522285;28;20117;-79
2024/01/17 14:37:40;;;;;;;5.88;1.90;;;;;;;19.43;100.00;101420.31;10517232;28;20450;-80
2024/01/17 14:43:11;;;;;;;11.75;3.60;;;;;;;19.29;100.00;101416.91;10545604;28;20052;-80
2024/01/17 14:48:35;;;;;;;11.38;2.85;;;;;;;19.05;100.00;101426.03;10533827;28;20052;-81
2024/01/17 14:54:03;;;;;;;13.85;3.40;;;;;;;18.83;100.00;101428.00;10501780;28;20597;-79
2024/01/17 14:59:28;;;;;;;11.82;5.00;;;;;;;18.65;100.00;101420.09;10517047;28;20041;-78
2024/01/17 15:04:50;;;;;;;13.57;4.20;;;;;;;18.46;100.00;101419.28;10542769;28;20147;-81
2024/01/17 15:10:15;;;;;;;25.30;11.55;;;;;;;18.26;100.00;101438.13;10521390;28;20044;-80
2024/01/17 15:15:38;;;;;;;24.83;12.55;;;;;;;18.09;100.00;101450.69;10511650;28;20081;-79
2024/01/17 15:21:02;;;;;;;79.90;46.33;;;;;;;17.94;100.00;101464.09;10516580;28;20052;-79
2024/01/17 15:26:26;;;;;;;37.25;22.20;;;;;;;17.61;100.00;101472.19;10524076;28;20504;-79
2024/01/17 15:31:48;;;;;;;61.67;43.40;;;;;;;17.28;100.00;101483.75;10529583;28;20044;-79
2024/01/17 15:37:11;;;;;;;34.45;29.05;;;;;;;17.08;100.00;101497.09;10517175;28;20109;-81
2024/01/17 15:42:35;;;;;;;31.40;22.02;;;;;;;17.08;100.00;101505.09;10516993;28;20106;-80
2024/01/17 15:47:57;;;;;;;40.72;28.17;;;;;;;16.83;100.00;101503.28;10529592;28;20071;-82
2024/01/17 15:53:20;;;;;;;26.83;13.40;;;;;;;16.71;100.00;101521.06;10529300;28;20048;-78
2024/01/17 15:58:44;;;;;;;36.65;20.98;;;;;;;16.59;100.00;101521.00;10530547;28;20044;-78
2024/01/17 16:04:10;;;;;;;33.42;25.60;;;;;;;16.53;100.00;101517.41;10513472;28;20062;-78
2024/01/17 16:09:33;;;;;;;30.88;20.48;;;;;;;16.39;100.00;101533.34;10513984;28;20127;-77
2024/01/17 16:14:57;;;;;;;36.80;24.35;;;;;;;16.12;100.00;101551.88;10501525;28;20048;-77
2024/01/17 16:20:20;;;;;;;46.55;41.65;;;;;;;15.99;100.00;101558.00;10504122;28;20056;-76
2024/01/17 16:25:43;;;;;;;43.60;35.38;;;;;;;15.69;100.00;101553.34;10502175;28;20051;-79
2024/01/17 16:31:10;;;;;;;17.20;11.40;;;;;;;15.52;100.00;101567.41;10518658;28;20574;-79
2024/01/17 16:36:33;;;;;;;16.20;8.82;;;;;;;15.38;100.00;101570.81;10531878;28;20126;-80
2024/01/17 16:41:55;;;;;;;20.83;11.98;;;;;;;15.45;100.00;101577.97;10528024;28;20048;-80
2024/01/17 16:47:19;;;;;;;16.63;8.27;;;;;;;15.24;100.00;101548.50;10516956;28;20043;-79
2024/01/17 16:52:44;;;;;;;21.20;8.85;;;;;;;15.29;100.00;101542.38;10515849;28;20051;-79
2024/01/17 16:58:07;;;;;;;18.80;11.02;;;;;;;15.37;100.00;101542.41;10539804;28;20085;-79
2024/01/17 17:03:32;;;;;;;21.98;11.90;;;;;;;15.18;100.00;101546.69;10529722;28;20078;-78
2024/01/17 17:08:54;;;;;;;21.48;9.57;;;;;;;14.85;100.00;101549.88;10507799;28;20058;-79
2024/01/17 17:14:17;;;;;;;17.27;7.25;;;;;;;14.94;100.00;101551.75;10527948;28;20534;-77
2024/01/17 17:19:41;;;;;;;33.35;20.10;;;;;;;15.06;100.00;101554.53;10528111;28;20134;-82
2024/01/17 17:25:10;;;;;;;28.88;18.65;;;;;;;14.93;100.00;101566.81;10507413;28;20059;-84
2024/01/17 17:30:35;;;;;;;16.30;9.23;;;;;;;14.75;100.00;101572.84;10526006;28;20044;-83
2024/01/17 17:36:03;;;;;;;18.05;9.57;;;;;;;14.88;100.00;101573.88;10516052;28;20059;-83
2024/01/17 17:41:27;;;;;;;44.80;28.98;;;;;;;14.85;100.00;101572.91;10517381;28;20059;-80
2024/01/17 17:46:52;;;;;;;30.83;23.10;;;;;;;14.66;100.00;101582.44;10515253;28;20052;-80
2024/01/17 17:52:18;;;;;;;14.38;7.55;;;;;;;14.79;100.00;101571.09;10529015;28;20048;-80
2024/01/17 17:57:41;;;;;;;16.40;8.85;;;;;;;14.73;100.00;101565.72;10513764;28;20055;-79
2024/01/17 18:03:05;;;;;;;20.63;14.65;;;;;;;14.57;100.00;101561.09;10516617;28;20048;-80
2024/01/17 18:08:29;;;;;;;17.90;9.32;;;;;;;14.24;100.00;101574.81;10511938;28;20047;-78
2024/01/17 18:13:51;;;;;;;22.88;12.73;;;;;;;14.04;100.00;101565.66;10505951;28;20110;-80
2024/01/17 18:19:16;;;;;;;13.30;5.07;;;;;;;14.04;100.00;101577.19;10520178;28;20040;-78
2024/01/17 18:24:41;;;;;;;15.05;5.95;;;;;;;14.04;100.00;101577.19;10526381;28;20142;-79
2024/01/17 18:30:03;;;;;;;24.65;12.93;;;;;;;13.98;100.00;101577.97;10536859;28;20511;-79
2024/01/17 18:35:29;;;;;;;33.35;20.23;;;;;;;13.91;100.00;101572.56;10527562;28;20055;-79
2024/01/17 18:40:53;;;;;;;17.52;7.38;;;;;;;14.15;100.00;101580.88;10527905;28;20496;-78
2024/01/17 18:46:16;;;;;;;15.57;6.63;;;;;;;14.11;100.00;101581.69;10512260;28;20043;-78
2024/01/17 18:51:38;;;;;;;25.48;14.68;;;;;;;14.00;100.00;101593.03;10526698;28;20052;-78
2024/01/17 18:57:02;;;;;;;21.60;9.93;;;;;;;14.09;100.00;101587.88;10511273;28;20046;-82
2024/01/17 19:02:27;;;;;;;27.73;16.83;;;;;;;14.02;100.00;101609.88;10522367;28;20060;-79
2024/01/17 19:07:50;;;;;;;33.72;20.60;;;;;;;14.02;100.00;101613.44;10527331;28;20048;-79
2024/01/17 19:13:14;;;;;;;27.13;13.38;;;;;;;13.87;100.00;101616.72;10526283;28;20052;-78
2024/01/17 19:18:37;;;;;;;22.08;12.07;;;;;;;13.84;100.00;101614.03;10525330;28;20048;-83
2024/01/17 19:24:00;;;;;;;11.18;5.03;;;;;;;13.73;100.00;101620.91;10521405;28;20408;-79
2024/01/17 19:29:24;;;;;;;14.75;5.22;;;;;;;13.54;100.00;101601.16;10545270;27;20397;-79
2024/01/17 19:34:48;;;;;;;29.15;16.70;;;;;;;13.51;100.00;101603.78;10532887;28;20048;-79
2024/01/17 19:40:11;;;;;;;11.13;6.38;;;;;;;13.38;100.00;101600.88;10534802;28;20043;-80
2024/01/17 19:45:35;;;;;;;28.83;19.20;;;;;;;13.36;100.00;101598.19;10524611;28;20048;-78
2024/01/17 19:50:57;;;;;;;21.38;13.23;;;;;;;13.35;100.00;101595.50;10530554;28;20101;-80
2024/01/17 19:56:20;;;;;;;33.63;19.42;;;;;;;13.02;100.00;101598.38;10518969;28;20036;-79
2024/01/17 20:01:45;;;;;;;56.67;39.63;;;;;;;12.96;100.00;101600.94;10499983;28;20378;-79
2024/01/17 20:07:07;;;;;;;34.38;21.77;;;;;;;13.06;100.00;101597.59;10531857;28;20142;-80
2024/01/17 20:12:29;;;;;;;32.60;23.90;;;;;;;13.03;100.00;101605.50;10549556;28;20050;-80
2024/01/17 20:17:53;;;;;;;37.00;21.13;;;;;;;12.93;100.00;101599.09;10542137;28;20051;-78
2024/01/17 20:23:16;;;;;;;23.67;11.10;;;;;;;12.97;100.00;101605.38;10544888;27;20044;-79
2024/01/17 20:28:40;;;;;;;20.52;9.35;;;;;;;13.05;100.00;101614.38;10527224;28;20048;-79
2024/01/17 20:34:05;;;;;;;28.02;15.77;;;;;;;13.13;100.00;101628.66;10507881;28;20036;-80
2024/01/17 20:39:29;;;;;;;43.72;21.25;;;;;;;13.14;100.00;101641.97;10491620;28;20052;-80
2024/01/17 20:44:51;;;;;;;31.60;16.35;;;;;;;13.13;100.00;101637.53;10505332;28;20098;-81
2024/01/17 20:50:19;;;;;;;25.10;13.00;;;;;;;13.01;100.00;101637.25;10527387;28;20040;-81
2024/01/17 20:55:41;;;;;;;22.77;10.90;;;;;;;12.93;100.00;101630.03;10533623;28;20405;-81
2024/01/17 21:01:03;;;;;;;20.70;11.93;;;;;;;13.13;100.00;101634.88;10532381;28;20055;-79
2024/01/17 21:06:31;;;;;;;37.95;19.70;;;;;;;12.72;100.00;101623.44;10518714;28;20075;-81
2024/01/17 21:11:55;;;;;;;35.37;19.90;;;;;;;12.61;100.00;101622.31;10492522;28;20434;-80
2024/01/17 21:17:22;;;;;;;30.85;17.15;;;;;;;12.78;100.00;101617.38;10530631;28;20493;-81
2024/01/17 21:22:47;;;;;;;29.50;12.40;;;;;;;12.76;100.00;101616.44;10514833;28;20078;-81
2024/01/17 21:28:12;;;;;;;28.42;17.60;;;;;;;12.80;100.00;101618.28;10495851;28;20102;-80
2024/01/17 21:33:35;;;;;;;20.10;9.57;;;;;;;12.87;100.00;101620.19;10530540;28;20760;-80
2024/01/17 21:38:59;;;;;;;19.27;8.95;;;;;;;12.77;100.00;101613.81;10532151;28;20449;-80
2024/01/17 21:44:21;;;;;;;81.28;72.32;;;;;;;12.86;100.00;101612.22;10528339;28;20109;-80
2024/01/17 21:49:44;;;;;;;26.30;13.15;;;;;;;12.78;100.00;101615.63;10516512;28;20044;-79
2024/01/17 21:55:09;;;;;;;17.08;6.50;;;;;;;12.82;100.00;101615.66;10503032;28;20055;-79
2024/01/17 22:00:35;;;;;;;30.77;23.73;;;;;;;12.96;100.00;101611.53;10519030;28;20138;-78
2024/01/17 22:05:58;;;;;;;29.17;20.75;;;;;;;12.89;100.00;101604.31;10538976;28;20083;-79
2024/01/17 22:11:22;;;;;;;17.60;8.40;;;;;;;12.91;100.00;101607.91;10538400;28;20040;-79
2024/01/17 22:16:44;;;;;;;16.25;5.90;;;;;;;12.98;100.00;101615.13;10518782;28;20412;-80
2024/01/17 22:22:07;;;;;;;18.55;8.93;;;;;;;12.92;100.00;101613.25;10523957;28;20391;-78
2024/01/17 22:27:31;;;;;;;18.70;7.25;;;;;;;12.97;100.00;101608.91;10537198;28;20523;-79
2024/01/17 22:32:54;;;;;;;18.40;11.05;;;;;;;13.07;100.00;101604.66;10506282;28;20043;-78
2024/01/17 22:38:16;;;;;;;24.92;8.60;;;;;;;13.18;100.00;101615.53;10523459;28;20049;-78
2024/01/17 22:43:40;;;;;;;16.90;5.20;;;;;;;13.02;100.00;101598.38;10523295;28;20056;-78
2024/01/17 22:49:04;;;;;;;12.45;4.22;;;;;;;12.97;100.00;101593.00;10510347;28;20066;-79
2024/01/17 22:54:27;;;;;;;19.10;6.05;;;;;;;12.99;100.00;101578.03;10545952;28;20076;-79
2024/01/17 22:59:51;;;;;;;15.38;5.35;;;;;;;12.81;100.00;101580.31;10537461;28;20076;-80
2024/01/17 23:05:13;;;;;;;10.02;4.88;;;;;;;12.57;100.00;101587.78;10517807;28;20416;-79
2024/01/17 23:10:36;;;;;;;6.18;3.60;;;;;;;12.58;100.00;101589.56;10521606;28;20048;-80
2024/01/17 23:16:00;;;;;;;16.10;5.15;;;;;;;12.62;100.00;101600.25;10522697;28;20059;-79
2024/01/17 23:21:23;;;;;;;26.60;13.68;;;;;;;12.66;100.00;101602.13;10505254;28;20503;-78
2024/01/17 23:26:45;;;;;;;18.67;7.72;;;;;;;12.62;100.00;101602.00;10524487;28;20051;-78
2024/01/17 23:32:09;;;;;;;26.38;13.18;;;;;;;12.56;100.00;101594.84;10520413;28;20086;-79
2024/01/17 23:37:32;;;;;;;19.20;8.48;;;;;;;12.56;100.00;101607.19;10535890;28;20058;-79
2024/01/17 23:42:54;;;;;;;13.60;4.70;;;;;;;12.57;100.00;101615.16;10534428;28;20078;-80
2024/01/17 23:48:18;;;;;;;18.58;8.30;;;;;;;12.66;100.00;101602.13;10535607;28;20055;-78
2024/01/17 23:53:41;;;;;;;10.77;5.82;;;;;;;12.58;100.00;101600.16;10523766;28;20373;-79
2024/01/17 23:59:09;;;;;;;24.70;13.35;;;;;;;12.59;100.00;101599.31;10528999;28;20511;-79
